Time;durP1;ratioP1;P1;durP2;ratioP2;P2;SDS_P1;SDS_P2;PMS_P1;PMS_P2;Temp;Humidity;BMP_temperature;BMP_pressure;BME280_temperature;BME280_humidity;BME280_pressure;Samples;Min_cycle;Max_cycle;Signal;HPM_P1;HPM_P2
2022/05/27 00:01:51;;;;;;;31.08;5.28;;;16.10;99.90;;;;;;5011478;28;20026;-76
2022/05/27 00:04:17;;;;;;;27.25;5.60;;;16.00;99.90;;;;;;5021995;28;20079;-75
2022/05/27 00:06:42;;;;;;;26.05;5.82;;;15.90;99.90;;;;;;5019774;28;20159;-76
2022/05/27 00:09:08;;;;;;;25.05;5.13;;;15.80;99.90;;;;;;5023036;28;20037;-76
2022/05/27 00:11:34;;;;;;;22.95;4.80;;;15.70;99.90;;;;;;5012440;28;20030;-75
2022/05/27 00:13:59;;;;;;;19.17;4.50;;;15.60;99.90;;;;;;5030899;28;20031;-75
2022/05/27 00:16:25;;;;;;;21.13;4.13;;;15.50;99.90;;;;;;5011434;28;20025;-75
2022/05/27 00:18:51;;;;;;;19.17;4.07;;;15.40;99.90;;;;;;5013492;28;20050;-74
2022/05/27 00:21:16;;;;;;;20.40;3.65;;;15.30;99.90;;;;;;5018322;28;20496;-75
2022/05/27 00:23:42;;;;;;;18.40;3.42;;;15.20;99.90;;;;;;5022179;28;20029;-74
2022/05/27 00:26:08;;;;;;;16.13;3.88;;;15.20;99.90;;;;;;5014074;28;20442;-75
2022/05/27 00:28:34;;;;;;;21.98;3.97;;;15.10;99.90;;;;;;5020435;28;20096;-74
2022/05/27 00:30:59;;;;;;;15.50;3.70;;;15.10;99.90;;;;;;5030716;28;20055;-73
2022/05/27 00:33:25;;;;;;;19.42;4.25;;;15.10;99.90;;;;;;5013057;28;20045;-74
2022/05/27 00:35:51;;;;;;;18.33;4.18;;;15.00;99.90;;;;;;5018142;28;20033;-74
2022/05/27 00:38:17;;;;;;;24.27;5.20;;;15.00;99.90;;;;;;5019615;28;20044;-73
2022/05/27 00:40:52;;;;;;;26.17;5.20;;;15.00;99.90;;;;;;5018834;28;20029;-73
2022/05/27 00:43:19;;;;;;;30.33;5.95;;;15.00;99.90;;;;;;5025938;28;20034;-73
2022/05/27 00:45:50;;;;;;;23.65;6.15;;;15.00;99.90;;;;;;5019642;28;20079;-75
2022/05/27 00:48:19;;;;;;;27.25;6.10;;;15.00;99.90;;;;;;5010938;28;20032;-74
2022/05/27 00:50:47;;;;;;;31.48;6.32;;;15.00;99.90;;;;;;5010587;28;20029;-74
2022/05/27 00:53:19;;;;;;;31.42;6.90;;;15.10;99.90;;;;;;5010436;28;20025;-74
2022/05/27 00:55:47;;;;;;;31.70;7.18;;;15.10;99.90;;;;;;5014326;28;20385;-74
2022/05/27 00:58:28;;;;;;;35.03;7.45;;;15.10;99.90;;;;;;5019120;28;20029;-74
2022/05/27 01:00:54;;;;;;;33.40;6.95;;;15.10;99.90;;;;;;5013218;28;20045;-74
2022/05/27 01:03:21;;;;;;;37.33;7.53;;;15.20;99.90;;;;;;5010787;28;20060;-74
2022/05/27 01:05:47;;;;;;;40.42;7.15;;;15.20;99.90;;;;;;5011185;28;20034;-73
2022/05/27 01:08:19;;;;;;;35.88;6.63;;;15.10;99.90;;;;;;5010452;28;20037;-73
2022/05/27 01:11:06;;;;;;;30.92;6.50;;;15.10;99.90;;;;;;5015576;28;20052;-73
2022/05/27 01:13:40;;;;;;;31.90;6.47;;;15.20;99.90;;;;;;5017250;28;20505;-73
2022/05/27 01:16:08;;;;;;;32.10;6.67;;;15.20;99.90;;;;;;5014688;28;20060;-74
2022/05/27 01:21:42;;;;;;;30.33;5.70;;;15.20;99.90;;;;;;5017886;28;20045;-73
2022/05/27 01:24:21;;;;;;;32.42;5.90;;;15.20;99.90;;;;;;5010607;28;20069;-75
2022/05/27 01:27:19;;;;;;;27.80;5.93;;;15.20;99.90;;;;;;5010079;28;20030;-73
2022/05/27 01:29:48;;;;;;;34.88;5.90;;;15.20;99.90;;;;;;5013873;28;20021;-74
2022/05/27 01:32:16;;;;;;;30.58;6.05;;;15.20;99.90;;;;;;5018989;28;20108;-73
2022/05/27 01:34:52;;;;;;;32.80;5.63;;;15.20;99.90;;;;;;5019649;28;20029;-73
2022/05/27 01:37:33;;;;;;;29.02;5.35;;;15.20;99.90;;;;;;5014170;28;20030;-74
2022/05/27 01:40:32;;;;;;;27.27;6.05;;;15.20;99.90;;;;;;5010148;28;20030;-74
2022/05/27 01:43:20;;;;;;;23.83;5.75;;;15.20;99.90;;;;;;5013649;28;20026;-75
2022/05/27 01:46:07;;;;;;;26.00;5.45;;;15.20;99.90;;;;;;5010512;28;20417;-74
2022/05/27 01:48:51;;;;;;;27.48;5.80;;;15.20;99.90;;;;;;5030129;28;20017;-74
2022/05/27 01:51:30;;;;;;;28.98;5.18;;;15.10;99.90;;;;;;5033589;28;20017;-74
2022/05/27 01:54:05;;;;;;;22.83;5.25;;;15.10;99.90;;;;;;5014307;28;20036;-74
2022/05/27 01:56:40;;;;;;;34.38;5.78;;;15.10;99.90;;;;;;5013583;28;20022;-73
2022/05/27 01:59:34;;;;;;;33.50;5.63;;;15.10;99.90;;;;;;5020811;28;20501;-73
2022/05/27 02:02:07;;;;;;;29.48;5.78;;;15.10;99.90;;;;;;5025803;28;20094;-74
2022/05/27 02:04:38;;;;;;;24.75;5.65;;;15.10;99.90;;;;;;5021388;28;20486;-73
2022/05/27 02:07:14;;;;;;;23.38;5.22;;;15.00;99.90;;;;;;5018236;28;20481;-74
2022/05/27 02:09:47;;;;;;;24.35;5.47;;;15.00;99.90;;;;;;5029659;28;20053;-74
2022/05/27 02:12:44;;;;;;;24.92;4.63;;;15.00;99.90;;;;;;5013432;28;20030;-74
2022/05/27 02:15:14;;;;;;;33.45;5.40;;;15.00;99.90;;;;;;5029503;28;20469;-73
2022/05/27 02:17:53;;;;;;;31.83;5.88;;;14.90;99.90;;;;;;5021745;28;20030;-73
2022/05/27 02:20:32;;;;;;;27.60;5.28;;;14.90;99.90;;;;;;5029386;28;20025;-74
2022/05/27 02:23:40;;;;;;;20.27;5.25;;;14.90;99.90;;;;;;5018351;28;20068;-74
2022/05/27 02:26:16;;;;;;;23.00;5.13;;;14.90;99.90;;;;;;5010270;28;20478;-73
2022/05/27 02:28:46;;;;;;;28.77;5.63;;;14.90;99.90;;;;;;5010127;28;20105;-74
2022/05/27 02:31:17;;;;;;;24.73;5.35;;;14.80;99.90;;;;;;5010543;28;20029;-74
2022/05/27 02:36:48;;;;;;;18.50;4.40;;;14.80;99.90;;;;;;5009661;28;20028;-74
2022/05/27 02:39:14;;;;;;;20.33;4.97;;;14.70;99.90;;;;;;5010369;28;20029;-72
2022/05/27 02:41:42;;;;;;;19.13;4.65;;;14.80;99.90;;;;;;5010082;28;20506;-73
2022/05/27 02:44:32;;;;;;;24.65;5.60;;;14.70;99.90;;;;;;5009580;28;20069;-72
2022/05/27 02:47:03;;;;;;;24.35;5.15;;;14.70;99.90;;;;;;5009747;28;20493;-74
2022/05/27 02:49:28;;;;;;;26.05;4.80;;;14.70;99.90;;;;;;5009261;28;20025;-73
2022/05/27 02:52:29;;;;;;;24.52;5.18;;;14.70;99.90;;;;;;5005194;28;20029;-73
2022/05/27 02:55:16;;;;;;;18.55;5.15;;;14.70;99.90;;;;;;5010153;28;20026;-73
2022/05/27 02:57:48;;;;;;;21.23;5.22;;;14.70;99.90;;;;;;5008405;28;20058;-73
2022/05/27 03:00:26;;;;;;;17.88;4.60;;;14.70;99.90;;;;;;5020088;28;20041;-74
2022/05/27 03:02:53;;;;;;;21.25;5.03;;;14.70;99.90;;;;;;5018423;28;20061;-72
2022/05/27 03:05:25;;;;;;;22.50;4.85;;;14.70;99.90;;;;;;5016671;28;20133;-74
2022/05/27 03:08:00;;;;;;;26.60;4.90;;;14.60;99.90;;;;;;5012178;28;20163;-73
2022/05/27 03:11:01;;;;;;;27.40;5.43;;;14.60;99.90;;;;;;5012521;28;20022;-73
2022/05/27 03:13:44;;;;;;;19.52;4.57;;;14.60;99.90;;;;;;5024493;28;20026;-73
2022/05/27 03:16:36;;;;;;;21.33;4.82;;;14.70;99.90;;;;;;5014751;28;20490;-73
2022/05/27 03:19:21;;;;;;;20.67;4.90;;;14.70;99.90;;;;;;5019316;28;20482;-73
2022/05/27 03:22:05;;;;;;;26.65;5.32;;;14.60;99.90;;;;;;5016921;28;20033;-75
2022/05/27 03:24:46;;;;;;;14.52;4.20;;;14.70;99.90;;;;;;5012394;28;20120;-73
2022/05/27 03:27:46;;;;;;;21.80;5.07;;;14.60;99.90;;;;;;5012019;28;20018;-74
2022/05/27 03:30:36;;;;;;;20.90;4.97;;;14.60;99.90;;;;;;5028733;28;20087;-74
2022/05/27 03:33:11;;;;;;;20.75;5.20;;;14.60;99.90;;;;;;4985212;28;20053;-75
2022/05/27 03:35:39;;;;;;;;;;;14.60;99.90;;;;;;5029206;28;20041;-75
2022/05/27 03:38:30;;;;;;;16.10;4.30;;;14.60;99.90;;;;;;5028887;28;20307;-77
2022/05/27 03:41:02;;;;;;;11.20;4.07;;;14.60;99.90;;;;;;5028806;28;20030;-75
2022/05/27 03:43:28;;;;;;;12.48;4.05;;;14.60;99.90;;;;;;5028574;28;20067;-74
2022/05/27 03:45:59;;;;;;;15.40;4.20;;;14.60;99.90;;;;;;5028918;28;20045;-74
2022/05/27 03:48:27;;;;;;;15.63;4.00;;;14.60;99.90;;;;;;5028589;28;20025;-74
2022/05/27 03:50:57;;;;;;;15.98;4.82;;;14.60;99.90;;;;;;5011724;28;20041;-74
2022/05/27 03:54:03;;;;;;;13.90;3.40;;;14.60;99.90;;;;;;5028313;28;20437;-75
2022/05/27 03:56:08;;;;;;;13.07;3.38;;;14.60;99.90;;;;;;5027636;28;20025;-74
2022/05/27 03:58:33;;;;;;;11.95;3.85;;;14.60;99.90;;;;;;5028133;28;20111;-74
2022/05/27 04:00:59;;;;;;;17.23;3.65;;;14.60;99.90;;;;;;5028550;28;20204;-75
2022/05/27 04:03:24;;;;;;;12.77;3.42;;;14.60;99.90;;;;;;5026012;28;20055;-75
2022/05/27 04:05:50;;;;;;;14.55;3.38;;;14.60;99.90;;;;;;5020977;28;20049;-75
2022/05/27 04:08:16;;;;;;;16.08;3.75;;;14.60;99.90;;;;;;5023672;28;20018;-74
2022/05/27 04:10:42;;;;;;;12.48;3.00;;;14.60;99.90;;;;;;5015633;28;20033;-75
2022/05/27 04:13:07;;;;;;;17.40;3.03;;;14.60;99.90;;;;;;5017193;28;20021;-74
2022/05/27 04:15:33;;;;;;;11.18;3.17;;;14.60;99.90;;;;;;5014788;28;20483;-74
2022/05/27 04:17:58;;;;;;;15.32;3.35;;;14.60;99.90;;;;;;5023314;28;20490;-75
2022/05/27 04:20:24;;;;;;;13.93;3.60;;;14.60;99.90;;;;;;5026412;28;20052;-75
2022/05/27 04:22:54;;;;;;;14.98;3.75;;;14.60;99.90;;;;;;5019605;28;20500;-76
2022/05/27 04:25:20;;;;;;;18.52;3.63;;;14.60;99.90;;;;;;5036352;28;20045;-75
2022/05/27 04:27:46;;;;;;;16.48;3.35;;;14.60;99.90;;;;;;5018179;28;20022;-74
2022/05/27 04:30:12;;;;;;;16.50;4.03;;;14.60;99.90;;;;;;5011607;28;20079;-75
2022/05/27 04:32:39;;;;;;;16.23;3.60;;;14.60;99.90;;;;;;5010566;28;20042;-75
2022/05/27 04:35:05;;;;;;;15.85;3.78;;;14.50;99.90;;;;;;5010816;28;20033;-74
2022/05/27 04:37:31;;;;;;;14.65;3.85;;;14.60;99.90;;;;;;5020584;28;20026;-74
2022/05/27 04:39:57;;;;;;;14.20;3.63;;;14.60;99.90;;;;;;5010813;28;20536;-74
2022/05/27 04:42:22;;;;;;;11.52;3.72;;;14.60;99.90;;;;;;5010857;28;20030;-75
2022/05/27 04:44:48;;;;;;;12.88;3.58;;;14.60;99.90;;;;;;5015835;28;20022;-76
2022/05/27 04:47:14;;;;;;;14.93;3.80;;;14.60;99.90;;;;;;5018051;28;20025;-75
2022/05/27 04:49:51;;;;;;;17.25;4.10;;;14.60;99.90;;;;;;5018189;28;20481;-75
2022/05/27 04:52:18;;;;;;;18.50;3.72;;;14.70;99.90;;;;;;5018898;28;20022;-74
2022/05/27 04:54:44;;;;;;;19.98;3.72;;;14.70;99.90;;;;;;5016380;28;20056;-75
2022/05/27 04:57:19;;;;;;;13.35;3.78;;;14.60;99.90;;;;;;5015934;28;20065;-74
2022/05/27 04:59:46;;;;;;;15.43;3.70;;;14.70;99.90;;;;;;5015530;28;20030;-75
2022/05/27 05:02:15;;;;;;;13.13;3.88;;;14.70;99.90;;;;;;5015813;28;20037;-75
2022/05/27 05:04:40;;;;;;;15.00;3.92;;;14.70;99.90;;;;;;5011260;28;20048;-75
2022/05/27 05:07:08;;;;;;;14.88;3.53;;;14.70;99.90;;;;;;5014506;28;20022;-75
2022/05/27 05:09:35;;;;;;;15.20;3.53;;;14.80;99.90;;;;;;5017576;28;20386;-75
2022/05/27 05:12:01;;;;;;;13.07;3.63;;;14.80;99.90;;;;;;5015860;28;20584;-75
2022/05/27 05:14:27;;;;;;;13.00;3.33;;;14.80;99.90;;;;;;5020573;28;20022;-74
2022/05/27 05:16:52;;;;;;;16.92;3.45;;;14.90;99.90;;;;;;5021174;28;20110;-75
2022/05/27 05:19:18;;;;;;;14.27;3.45;;;14.90;99.90;;;;;;5021293;28;20073;-75
2022/05/27 05:21:43;;;;;;;12.30;3.13;;;14.90;99.90;;;;;;5015947;28;20526;-74
2022/05/27 05:24:09;;;;;;;13.18;3.00;;;14.90;99.90;;;;;;5024600;28;20037;-75
2022/05/27 05:26:35;;;;;;;11.40;3.20;;;14.90;99.90;;;;;;5026722;28;20053;-74
2022/05/27 05:29:00;;;;;;;13.30;3.17;;;14.90;99.90;;;;;;5024505;28;20038;-75
2022/05/27 05:31:26;;;;;;;14.52;3.10;;;14.90;99.90;;;;;;5030885;28;20068;-74
2022/05/27 05:33:51;;;;;;;11.60;3.38;;;14.90;99.90;;;;;;5023269;28;20369;-75
2022/05/27 05:36:17;;;;;;;13.05;2.80;;;14.80;99.90;;;;;;5024162;28;20105;-75
2022/05/27 05:38:42;;;;;;;10.10;3.17;;;14.80;99.90;;;;;;5014442;28;20018;-74
2022/05/27 05:41:08;;;;;;;9.57;2.80;;;14.80;99.90;;;;;;5013570;28;20026;-75
2022/05/27 05:43:34;;;;;;;11.90;3.00;;;14.80;99.90;;;;;;5015430;28;20046;-74
2022/05/27 05:45:59;;;;;;;10.43;2.80;;;14.80;99.90;;;;;;5017617;28;20030;-75
2022/05/27 05:48:25;;;;;;;10.82;3.00;;;14.80;99.90;;;;;;5018270;28;20033;-74
2022/05/27 05:50:50;;;;;;;14.50;3.03;;;14.90;99.90;;;;;;5013520;28;20022;-74
2022/05/27 05:53:19;;;;;;;12.43;2.85;;;14.90;99.90;;;;;;5017255;28;20025;-74
2022/05/27 05:55:44;;;;;;;12.85;3.15;;;15.00;99.90;;;;;;5032933;28;20022;-74
2022/05/27 05:58:10;;;;;;;12.88;3.13;;;15.00;99.90;;;;;;5035434;28;20026;-75
2022/05/27 06:00:36;;;;;;;8.30;3.03;;;15.00;99.90;;;;;;5028702;28;20492;-74
2022/05/27 06:03:02;;;;;;;11.75;3.17;;;15.10;99.90;;;;;;5025174;28;20041;-74
2022/05/27 06:05:27;;;;;;;15.73;2.97;;;15.10;99.90;;;;;;5025465;28;20017;-74
2022/05/27 06:07:55;;;;;;;11.85;2.60;;;15.10;99.90;;;;;;5030014;28;20018;-75
2022/05/27 06:10:21;;;;;;;11.77;2.97;;;15.10;99.90;;;;;;5019475;28;20398;-74
2022/05/27 06:12:47;;;;;;;12.73;3.63;;;15.10;99.90;;;;;;5031486;28;20017;-74
2022/05/27 06:15:14;;;;;;;11.57;3.00;;;15.10;99.90;;;;;;5031608;28;20037;-74
2022/05/27 06:17:40;;;;;;;12.77;3.20;;;15.10;99.90;;;;;;5031201;28;20029;-74
2022/05/27 06:20:06;;;;;;;10.65;3.60;;;15.00;99.90;;;;;;5027781;28;20048;-74
2022/05/27 06:22:32;;;;;;;12.88;3.90;;;15.10;99.90;;;;;;5026507;28;20116;-74
2022/05/27 06:24:59;;;;;;;14.73;3.88;;;15.10;99.90;;;;;;5023892;28;20026;-76
2022/05/27 06:27:25;;;;;;;11.35;3.47;;;15.10;99.90;;;;;;5023831;28;20030;-75
2022/05/27 06:35:19;;;;;;;15.27;3.17;;;15.20;99.90;;;;;;5026535;28;20071;-75
2022/05/27 06:37:45;;;;;;;11.18;2.90;;;15.20;99.90;;;;;;5030113;28;20037;-75
2022/05/27 06:40:11;;;;;;;15.52;3.15;;;15.30;99.90;;;;;;5020128;28;20029;-75
2022/05/27 06:42:37;;;;;;;14.65;3.55;;;15.30;99.90;;;;;;5012921;28;20030;-75
2022/05/27 06:45:08;;;;;;;12.50;3.00;;;15.30;99.90;;;;;;5023161;28;20079;-75
2022/05/27 06:47:34;;;;;;;14.82;3.05;;;15.30;99.90;;;;;;5014547;28;20022;-75
2022/05/27 06:49:59;;;;;;;13.40;3.03;;;15.40;99.90;;;;;;5018091;28;20042;-76
2022/05/27 06:52:25;;;;;;;12.45;2.85;;;15.40;99.90;;;;;;5025100;28;20022;-74
2022/05/27 06:54:51;;;;;;;16.27;2.90;;;15.40;99.90;;;;;;5016894;28;20113;-74
2022/05/27 06:57:17;;;;;;;14.13;3.03;;;15.50;99.90;;;;;;5014100;28;20018;-75
2022/05/27 06:59:43;;;;;;;13.25;2.80;;;15.50;99.90;;;;;;5023367;28;20456;-76
2022/05/27 07:02:09;;;;;;;15.50;2.90;;;15.50;99.90;;;;;;5018171;28;20030;-76
2022/05/27 07:04:35;;;;;;;11.18;3.67;;;15.50;99.90;;;;;;5012771;28;20022;-76
2022/05/27 07:07:04;;;;;;;12.18;3.20;;;15.50;99.90;;;;;;5012414;28;20034;-76
2022/05/27 07:09:38;;;;;;;10.77;2.70;;;15.50;99.90;;;;;;5017131;28;20084;-75
2022/05/27 07:12:11;;;;;;;14.55;3.17;;;15.50;99.90;;;;;;5018679;28;20026;-75
2022/05/27 07:14:38;;;;;;;16.08;3.20;;;15.60;99.90;;;;;;5023001;28;20090;-75
2022/05/27 07:17:04;;;;;;;14.35;2.90;;;15.70;99.90;;;;;;5019973;28;20359;-75
2022/05/27 07:19:30;;;;;;;14.20;3.10;;;15.80;99.90;;;;;;5023448;28;20494;-75
2022/05/27 07:21:56;;;;;;;12.95;2.83;;;15.90;99.90;;;;;;5012931;28;20113;-75
2022/05/27 07:24:23;;;;;;;14.32;2.90;;;16.00;99.90;;;;;;5019440;28;20053;-76
2022/05/27 07:26:48;;;;;;;19.05;3.10;;;16.00;99.90;;;;;;5015547;28;20040;-76
2022/05/27 07:29:14;;;;;;;14.65;3.13;;;16.10;99.90;;;;;;5021385;28;20026;-76
2022/05/27 07:31:42;;;;;;;15.50;2.50;;;16.10;99.90;;;;;;5027445;28;20054;-76
2022/05/27 07:34:08;;;;;;;13.32;3.00;;;16.10;99.90;;;;;;5017293;28;20036;-75
2022/05/27 07:36:33;;;;;;;11.77;3.17;;;16.20;99.90;;;;;;5025873;28;20021;-75
2022/05/27 07:38:59;;;;;;;13.93;3.13;;;16.10;99.90;;;;;;5011778;28;20018;-75
2022/05/27 07:41:30;;;;;;;16.80;3.28;;;16.10;99.90;;;;;;5011746;28;20038;-75
2022/05/27 07:43:59;;;;;;;12.98;2.95;;;16.10;99.90;;;;;;5021296;28;20084;-76
2022/05/27 07:46:25;;;;;;;13.43;3.33;;;16.30;99.90;;;;;;5017704;28;20548;-75
2022/05/27 07:48:51;;;;;;;10.65;3.00;;;16.30;99.90;;;;;;5014217;28;20334;-74
2022/05/27 07:51:16;;;;;;;15.85;2.75;;;16.30;99.90;;;;;;5011741;28;20575;-75
2022/05/27 07:53:42;;;;;;;14.05;2.78;;;16.20;99.90;;;;;;5018780;28;20029;-74
2022/05/27 07:56:09;;;;;;;16.30;3.35;;;16.20;99.90;;;;;;5013091;28;20014;-74
2022/05/27 07:58:36;;;;;;;15.05;3.08;;;16.20;99.90;;;;;;5011329;28;20617;-75
2022/05/27 08:01:02;;;;;;;17.83;2.85;;;16.30;99.90;;;;;;5017235;28;21584;-75
2022/05/27 08:03:28;;;;;;;12.32;3.45;;;16.30;99.90;;;;;;5011803;28;20061;-74
2022/05/27 08:05:55;;;;;;;11.70;3.33;;;16.30;99.90;;;;;;5011729;28;20022;-75
2022/05/27 08:08:22;;;;;;;15.07;2.90;;;16.30;99.90;;;;;;5018214;28;20029;-76
2022/05/27 08:10:47;;;;;;;15.30;3.25;;;16.30;99.90;;;;;;5014105;28;20033;-76
2022/05/27 08:13:13;;;;;;;15.88;3.25;;;16.30;99.90;;;;;;5011394;28;20084;-75
2022/05/27 08:15:39;;;;;;;11.60;2.67;;;16.30;99.90;;;;;;5011582;28;20025;-76
2022/05/27 08:18:05;;;;;;;15.00;2.78;;;16.40;99.90;;;;;;5011424;28;20033;-75
2022/05/27 08:20:34;;;;;;;11.52;2.90;;;16.50;99.90;;;;;;5017155;28;20034;-75
2022/05/27 08:23:00;;;;;;;11.80;3.05;;;16.60;99.90;;;;;;5017887;28;20424;-75
2022/05/27 08:25:27;;;;;;;16.60;3.30;;;16.60;99.90;;;;;;5022307;28;20022;-75
2022/05/27 08:27:54;;;;;;;15.50;2.97;;;16.60;99.70;;;;;;5015149;28;20022;-74
2022/05/27 08:30:27;;;;;;;19.33;3.05;;;16.60;99.90;;;;;;5031409;28;20037;-75
2022/05/27 08:32:52;;;;;;;14.65;2.53;;;16.70;99.90;;;;;;5021802;28;20037;-74
2022/05/27 08:38:07;;;;;;;14.47;3.13;;;16.80;99.20;;;;;;5031253;28;20037;-77
2022/05/27 08:40:32;;;;;;;12.43;3.22;;;16.80;99.30;;;;;;5012159;28;20033;-76
2022/05/27 08:42:58;;;;;;;14.60;3.00;;;16.90;99.50;;;;;;5014880;28;20493;-76
2022/05/27 08:45:37;;;;;;;21.13;3.33;;;17.00;99.00;;;;;;5015697;28;20017;-74
2022/05/27 08:48:10;;;;;;;12.02;3.08;;;17.10;99.10;;;;;;5012731;28;20026;-74
2022/05/27 08:50:40;;;;;;;14.68;3.28;;;17.20;96.50;;;;;;5010873;28;20048;-75
2022/05/27 08:53:16;;;;;;;15.45;3.22;;;17.10;96.90;;;;;;5013558;28;20028;-76
2022/05/27 09:01:33;;;;;;;17.98;3.25;;;17.10;94.70;;;;;;5020226;28;20400;-75
2022/05/27 09:04:17;;;;;;;18.35;3.40;;;17.20;94.90;;;;;;5030860;28;20117;-75
2022/05/27 09:06:49;;;;;;;17.77;3.53;;;17.10;93.90;;;;;;5040440;28;20462;-76
2022/05/27 09:09:25;;;;;;;13.40;3.35;;;17.00;94.90;;;;;;5026450;28;20059;-75
2022/05/27 09:12:20;;;;;;;17.00;3.50;;;17.10;94.90;;;;;;5017006;28;20085;-74
2022/05/27 09:14:54;;;;;;;15.57;2.92;;;17.30;94.90;;;;;;5012369;28;20025;-74
2022/05/27 09:17:44;;;;;;;15.32;3.08;;;17.40;94.70;;;;;;5011107;28;20026;-76
2022/05/27 09:20:34;;;;;;;18.23;3.65;;;17.20;94.30;;;;;;5010674;28;20030;-74
2022/05/27 09:23:11;;;;;;;18.88;3.42;;;17.30;95.00;;;;;;5010858;28;20083;-75
2022/05/27 09:25:42;;;;;;;20.13;3.75;;;17.50;96.00;;;;;;5022876;28;20024;-75
2022/05/27 09:28:40;;;;;;;15.65;3.15;;;17.60;95.90;;;;;;5030166;28;20449;-74
2022/05/27 09:31:08;;;;;;;18.63;3.50;;;17.60;95.40;;;;;;5017181;28;20045;-75
2022/05/27 09:33:35;;;;;;;15.75;3.28;;;17.50;94.90;;;;;;5010480;28;20101;-75
2022/05/27 09:36:15;;;;;;;16.98;3.47;;;17.30;95.30;;;;;;5016278;28;20047;-74
2022/05/27 09:38:57;;;;;;;16.00;3.55;;;17.30;95.80;;;;;;5019586;28;20073;-75
2022/05/27 09:41:38;;;;;;;15.20;3.13;;;17.40;95.40;;;;;;5020201;28;20108;-75
2022/05/27 09:44:12;;;;;;;18.50;3.30;;;17.40;94.80;;;;;;5023666;28;20059;-75
2022/05/27 09:46:38;;;;;;;18.67;3.53;;;17.50;95.60;;;;;;5010480;28;20025;-75
2022/05/27 09:49:05;;;;;;;18.70;3.20;;;17.70;95.70;;;;;;5010161;28;20025;-74
2022/05/27 09:51:32;;;;;;;24.95;4.35;;;17.80;94.60;;;;;;5010136;28;20029;-74
2022/05/27 09:54:10;;;;;;;21.08;3.75;;;17.60;95.30;;;;;;5021926;28;20425;-74
2022/05/27 09:56:54;;;;;;;21.50;4.25;;;17.30;96.50;;;;;;5019005;28;20422;-76
2022/05/27 09:59:20;;;;;;;17.10;3.97;;;17.20;96.80;;;;;;5009890;28;20041;-78
2022/05/27 10:01:46;;;;;;;21.70;3.90;;;17.10;96.70;;;;;;5010301;28;20125;-75
2022/05/27 10:04:14;;;;;;;18.58;3.78;;;17.00;96.60;;;;;;5026706;28;20074;-75
2022/05/27 10:06:40;;;;;;;22.40;4.45;;;16.80;96.60;;;;;;5015084;28;20065;-75
2022/05/27 10:09:28;;;;;;;17.13;3.55;;;16.70;96.70;;;;;;5013667;28;20026;-75
2022/05/27 10:11:57;;;;;;;30.92;3.83;;;16.80;96.60;;;;;;5015070;28;20030;-74
2022/05/27 10:14:33;;;;;;;23.25;3.75;;;16.90;97.10;;;;;;5013652;28;20026;-75
2022/05/27 10:17:01;;;;;;;17.20;3.95;;;16.90;96.20;;;;;;5013839;28;20025;-75
2022/05/27 10:19:27;;;;;;;16.83;3.33;;;16.80;95.60;;;;;;5013262;28;20552;-74
2022/05/27 10:22:04;;;;;;;19.05;3.35;;;16.70;95.50;;;;;;5023130;28;20021;-74
2022/05/27 10:24:31;;;;;;;16.13;3.30;;;16.60;95.00;;;;;;5023119;28;20091;-74
2022/05/27 10:27:09;;;;;;;16.65;3.40;;;16.60;94.80;;;;;;5019792;28;20076;-74
2022/05/27 10:29:55;;;;;;;21.80;3.72;;;16.70;94.80;;;;;;5022959;28;20215;-75
2022/05/27 10:32:34;;;;;;;13.27;2.80;;;16.90;95.30;;;;;;5021301;28;20053;-75
2022/05/27 10:35:03;;;;;;;20.77;3.45;;;17.00;93.50;;;;;;5032757;28;20057;-74
2022/05/27 10:37:44;;;;;;;13.50;2.90;;;17.00;94.70;;;;;;5029911;28;20033;-75
2022/05/27 10:40:34;;;;;;;19.08;3.22;;;17.10;91.80;;;;;;5031559;28;20128;-75
2022/05/27 10:43:29;;;;;;;17.23;3.15;;;17.20;91.60;;;;;;5013127;28;20029;-73
2022/05/27 10:45:57;;;;;;;15.40;2.63;;;17.30;87.60;;;;;;5016891;28;20025;-75
2022/05/27 10:48:39;;;;;;;17.73;3.45;;;17.30;88.60;;;;;;5013211;28;20381;-76
2022/05/27 10:51:46;;;;;;;15.50;3.17;;;17.40;86.20;;;;;;5023100;28;20060;-73
2022/05/27 10:54:30;;;;;;;22.17;3.72;;;17.40;86.00;;;;;;5009710;28;20033;-76
2022/05/27 11:03:14;;;;;;;14.23;2.95;;;17.50;79.40;;;;;;5010075;28;20037;-74
2022/05/27 11:06:04;;;;;;;11.98;2.50;;;17.70;79.60;;;;;;5009749;28;20045;-74
2022/05/27 11:08:33;;;;;;;11.73;2.60;;;17.70;77.80;;;;;;5009855;28;20112;-75
2022/05/27 11:11:30;;;;;;;11.18;2.33;;;17.90;76.90;;;;;;5009455;28;20034;-76
2022/05/27 11:17:30;;;;;;;12.45;2.10;;;18.10;74.50;;;;;;4956639;28;20101;-75
2022/05/27 11:20:01;;;;;;;13.93;2.58;;;18.20;72.70;;;;;;4964654;28;20050;-74
2022/05/27 11:22:40;;;;;;;11.63;2.50;;;18.30;68.40;;;;;;4939117;28;20366;-75
2022/05/27 11:25:27;;;;;;;14.82;2.10;;;18.20;69.40;;;;;;4951956;28;20042;-75
2022/05/27 11:28:11;;;;;;;10.80;2.58;;;18.20;69.00;;;;;;4970101;28;20170;-76
2022/05/27 11:30:47;;;;;;;10.15;2.38;;;18.30;70.40;;;;;;4986632;28;20038;-74
2022/05/27 11:33:13;;;;;;;12.45;2.47;;;18.40;67.00;;;;;;4990142;28;20512;-73
2022/05/27 11:36:14;;;;;;;11.90;2.38;;;18.40;65.80;;;;;;4990266;28;20121;-75
2022/05/27 11:39:01;;;;;;;11.73;2.47;;;18.30;66.60;;;;;;4959517;28;20171;-74
2022/05/27 11:41:54;;;;;;;12.70;2.20;;;18.30;65.20;;;;;;4955713;28;20542;-74
2022/05/27 11:44:25;;;;;;;9.23;2.03;;;18.10;63.60;;;;;;4960941;28;20043;-75
2022/05/27 11:47:18;;;;;;;9.38;2.10;;;17.90;64.20;;;;;;4970611;28;20125;-76
2022/05/27 11:49:43;;;;;;;12.88;2.40;;;18.00;64.30;;;;;;4990330;28;20433;-73
2022/05/27 11:52:21;;;;;;;16.45;2.83;;;18.00;65.60;;;;;;4990143;28;20030;-75
2022/05/27 11:54:55;;;;;;;11.55;2.42;;;18.10;67.20;;;;;;4983235;28;20038;-76
2022/05/27 11:57:40;;;;;;;11.13;2.17;;;18.10;67.10;;;;;;4970982;28;20441;-73
2022/05/27 12:00:12;;;;;;;11.68;2.28;;;18.10;67.60;;;;;;4970787;28;20313;-74
2022/05/27 12:03:12;;;;;;;9.32;1.88;;;18.10;66.40;;;;;;4991870;28;20098;-73
2022/05/27 12:05:41;;;;;;;16.50;2.50;;;18.20;63.70;;;;;;4936819;29;20042;-74
2022/05/27 12:08:22;;;;;;;14.43;2.60;;;18.30;66.50;;;;;;4953166;29;20396;-73
2022/05/27 12:10:53;;;;;;;12.63;2.40;;;18.30;65.90;;;;;;4952292;29;20070;-75
2022/05/27 12:13:38;;;;;;;12.57;2.47;;;18.20;66.60;;;;;;4966382;28;20069;-73
2022/05/27 12:16:18;;;;;;;7.80;1.77;;;18.00;65.90;;;;;;4990335;28;20030;-74
2022/05/27 12:18:58;;;;;;;8.55;2.50;;;17.80;66.30;;;;;;4974885;28;20034;-75
2022/05/27 12:21:28;;;;;;;8.80;2.30;;;18.00;64.80;;;;;;4971553;28;20127;-75
2022/05/27 12:24:00;;;;;;;9.60;1.90;;;18.00;64.50;;;;;;4960436;28;20106;-74
2022/05/27 12:26:33;;;;;;;12.35;2.53;;;18.10;61.90;;;;;;4989044;28;20100;-74
2022/05/27 12:29:03;;;;;;;15.32;2.70;;;18.10;65.20;;;;;;4991321;28;20093;-74
2022/05/27 12:31:31;;;;;;;10.02;2.40;;;18.30;67.00;;;;;;4966245;28;20129;-76
2022/05/27 12:33:57;;;;;;;12.88;2.28;;;18.60;66.40;;;;;;4992084;28;20446;-75
2022/05/27 12:36:24;;;;;;;12.52;2.50;;;18.50;65.00;;;;;;4984274;28;20038;-75
2022/05/27 12:38:53;;;;;;;11.43;2.70;;;18.20;65.90;;;;;;4976798;28;20023;-74
2022/05/27 12:41:41;;;;;;;11.27;2.25;;;18.00;67.50;;;;;;4995506;28;20126;-75
2022/05/27 12:44:25;;;;;;;15.35;2.55;;;17.80;68.60;;;;;;5016040;28;20033;-74
2022/05/27 12:46:55;;;;;;;10.88;2.35;;;17.80;68.00;;;;;;5023003;28;20042;-74
2022/05/27 12:49:26;;;;;;;11.75;2.33;;;17.70;68.80;;;;;;5025857;28;20021;-74
2022/05/27 12:51:54;;;;;;;12.30;2.50;;;17.80;67.70;;;;;;5021057;28;20553;-74
2022/05/27 12:54:48;;;;;;;10.45;2.20;;;17.90;69.10;;;;;;5023876;28;20048;-73
2022/05/27 13:03:08;;;;;;;10.65;2.20;;;18.30;67.50;;;;;;5017262;28;20037;-74
2022/05/27 13:06:11;;;;;;;13.57;2.28;;;18.40;67.00;;;;;;5027772;28;20428;-74
2022/05/27 13:08:46;;;;;;;11.30;2.33;;;18.70;66.40;;;;;;5019489;28;20071;-72
2022/05/27 13:11:36;;;;;;;11.27;2.38;;;18.80;67.40;;;;;;5017208;28;20026;-74
2022/05/27 13:14:04;;;;;;;11.40;2.30;;;19.00;66.10;;;;;;5020353;28;20521;-73
2022/05/27 13:16:57;;;;;;;10.43;2.35;;;18.90;66.80;;;;;;5014369;28;20120;-74
2022/05/27 13:19:26;;;;;;;12.57;3.78;;;18.80;65.40;;;;;;5022891;28;20040;-74
2022/05/27 13:21:51;;;;;;;11.57;2.38;;;18.50;67.70;;;;;;5012457;28;20117;-74
2022/05/27 13:24:17;;;;;;;11.57;2.50;;;18.30;68.10;;;;;;5021677;28;20105;-73
2022/05/27 13:26:51;;;;;;;12.35;2.25;;;18.10;68.50;;;;;;5012040;28;20136;-73
2022/05/27 13:29:25;;;;;;;11.88;2.38;;;17.90;68.50;;;;;;5027330;28;20075;-75
2022/05/27 13:32:15;;;;;;;11.15;2.33;;;17.90;68.90;;;;;;5020170;28;20413;-74
2022/05/27 13:34:46;;;;;;;14.50;2.72;;;17.90;70.60;;;;;;5021417;28;20046;-74
2022/05/27 13:37:40;;;;;;;8.60;1.95;;;18.00;71.10;;;;;;5030010;28;20076;-75
2022/05/27 13:40:13;;;;;;;10.02;2.05;;;18.30;68.90;;;;;;5026766;28;20030;-74
2022/05/27 13:42:48;;;;;;;9.10;2.05;;;18.20;67.40;;;;;;5018514;28;20057;-74